9TX1 weather

Bar S Ranch Airport
Giddings, Texas, United States

Public forecast

Using degrees Fahrenheit for public forecast. Weather courtesy of forecast.io.

METAR (pilot weather report)

Closest report is Giddings Lee County Airport, 6.6 nm (12.3 km) WNW. Retrieved 2019/07/23 06:35 UTC (0 seconds ago):

KGYB 230635Z AUTO 01003KT 10SM -RA BKN050 BKN070 29/24 A3004 RMK AO2 T02900235

TAF (pilot weather forecast)

Closest forecast is Easterwood Field, 36.9 nm (68.4 km) NE. Retrieved 2019/07/23 06:22 UTC (7 minutes ago):

TAF KCLL 230520Z 2306/2406 10005KT P6SM VCSH OVC080 FM231100 36012KT P6SM FEW060 SCT250 FM231700 01012KT P6SM FEW050 FM232200 03009KT P6SM SKC